Time;durP1;ratioP1;P1;durP2;ratioP2;P2;SDS_P1;SDS_P2;PMS_P1;PMS_P2;Temp;Humidity;BMP_temperature;BMP_pressure;BME280_temperature;BME280_humidity;BME280_pressure;Samples;Min_cycle;Max_cycle;Signal;HPM_P1;HPM_P2
2023/02/15 00:01:11;;;;;;;;;;;;;;;0.72;91.47;97742.28;5094654;28;19953;-75
2023/02/15 00:03:37;;;;;;;;;;;;;;;0.70;91.99;97740.75;5094664;28;19944;-75
2023/02/15 00:06:04;;;;;;;;;;;;;;;0.68;92.00;97735.72;5094197;28;19951;-75
2023/02/15 00:08:30;;;;;;;;;;;;;;;0.65;91.79;97729.97;5094369;28;20309;-75
2023/02/15 00:11:03;;;;;;;;;;;;;;;0.60;91.67;97738.91;5094043;28;20283;-74
2023/02/15 00:13:29;;;;;;;;;;;;;;;0.57;91.66;97731.41;5094187;28;19955;-75
2023/02/15 00:15:59;;;;;;;;;;;;;;;0.54;91.44;97726.47;5094442;28;19954;-75
2023/02/15 00:18:25;;;;;;;;;;;;;;;0.50;91.74;97721.69;5076007;28;19956;-75
2023/02/15 00:20:51;;;;;;;;;;;;;;;0.49;92.02;97730.41;5093854;28;19961;-75
2023/02/15 00:23:17;;;;;;;;;;;;;;;0.48;92.69;97721.00;5094157;28;19999;-75
2023/02/15 00:25:43;;;;;;;;;;;;;;;0.50;93.30;97721.69;5094576;28;19948;-75
2023/02/15 00:28:08;;;;;;;;;;;;;;;0.50;93.55;97721.69;5094002;28;19973;-75
2023/02/15 00:30:34;;;;;;;;;;;;;;;0.52;95.08;97730.13;5093760;28;20385;-74
2023/02/15 00:33:00;;;;;;;;;;;;;;;0.54;95.87;97723.91;5093931;28;19959;-76
2023/02/15 00:35:26;;;;;;;;;;;;;;;0.55;95.70;97717.00;5075946;28;20474;-75
2023/02/15 00:37:52;;;;;;;;;;;;;;;0.55;95.47;97719.56;5094054;28;20371;-75
2023/02/15 00:40:18;;;;;;;;;;;;;;;0.55;95.88;97715.22;5093871;28;19966;-75
2023/02/15 00:42:44;;;;;;;;;;;;;;;0.57;95.59;97717.69;5093499;28;20438;-76
2023/02/15 00:45:10;;;;;;;;;;;;;;;0.57;95.94;97717.69;5093831;28;19951;-75
2023/02/15 00:47:36;;;;;;;;;;;;;;;0.57;96.92;97723.66;5093934;28;19958;-74
2023/02/15 00:50:03;;;;;;;;;;;;;;;0.55;96.80;97710.06;5093637;28;19944;-75
2023/02/15 00:52:28;;;;;;;;;;;;;;;0.56;95.97;97713.47;5093907;28;19947;-75
2023/02/15 00:54:54;;;;;;;;;;;;;;;0.54;95.07;97694.69;5076057;28;20005;-75
2023/02/15 00:57:20;;;;;;;;;;;;;;;0.52;95.08;97699.16;5093713;28;19943;-74
2023/02/15 00:59:46;;;;;;;;;;;;;;;0.49;94.34;97687.31;5093992;28;19967;-75
2023/02/15 01:02:12;;;;;;;;;;;;;;;0.47;94.41;97698.72;5093920;28;19954;-75
2023/02/15 01:04:38;;;;;;;;;;;;;;;0.44;94.46;97702.34;5092990;28;19959;-75
2023/02/15 01:07:04;;;;;;;;;;;;;;;0.43;94.90;97705.06;5093595;28;19952;-75
2023/02/15 01:09:29;;;;;;;;;;;;;;;0.42;95.00;97699.09;5075318;28;19953;-74
2023/02/15 01:11:55;;;;;;;;;;;;;;;0.43;94.89;97707.66;5093830;28;20002;-75
2023/02/15 01:14:21;;;;;;;;;;;;;;;0.39;94.97;97700.13;5093508;28;19973;-75
2023/02/15 01:16:47;;;;;;;;;;;;;;;0.38;94.78;97703.69;5093533;28;19949;-75
2023/02/15 01:19:13;;;;;;;;;;;;;;;0.35;94.76;97706.50;5093189;28;19960;-75
2023/02/15 01:21:40;;;;;;;;;;;;;;;0.33;94.42;97705.78;5093863;28;19954;-75
2023/02/15 01:24:11;;;;;;;;;;;;;;;0.30;94.09;97697.50;5093313;28;19957;-75
2023/02/15 01:26:37;;;;;;;;;;;;;;;0.24;93.38;97685.88;5093855;28;19944;-75
2023/02/15 01:29:03;;;;;;;;;;;;;;;0.20;93.25;97680.16;5075427;28;19962;-75
2023/02/15 01:31:29;;;;;;;;;;;;;;;0.17;93.01;97684.75;5093972;28;19955;-75
2023/02/15 01:33:54;;;;;;;;;;;;;;;0.11;92.96;97678.31;5096942;28;19954;-75
2023/02/15 01:36:20;;;;;;;;;;;;;;;0.11;93.29;97680.09;5097545;28;20007;-75
2023/02/15 01:38:46;;;;;;;;;;;;;;;0.09;93.56;97682.78;5097358;28;20055;-75
2023/02/15 01:41:26;;;;;;;;;;;;;;;0.09;94.03;97692.28;5096990;28;20481;-76
2023/02/15 01:43:53;;;;;;;;;;;;;;;0.09;94.68;97689.69;5096974;28;19995;-75
2023/02/15 01:46:21;;;;;;;;;;;;;;;0.08;94.92;97680.31;5096811;28;19950;-75
2023/02/15 01:48:48;;;;;;;;;;;;;;;0.09;95.13;97689.69;5096747;28;19949;-75
2023/02/15 01:51:18;;;;;;;;;;;;;;;0.09;95.01;97690.50;5097293;28;19946;-75
2023/02/15 01:54:10;;;;;;;;;;;;;;;0.03;93.72;97670.34;5096739;28;19957;-75
2023/02/15 01:56:38;;;;;;;;;;;;;;;-0.03;93.36;97684.53;5092820;28;19947;-75
2023/02/15 01:59:07;;;;;;;;;;;;;;;-0.05;93.54;97672.72;5078572;28;19969;-75
2023/02/15 02:01:32;;;;;;;;;;;;;;;-0.07;93.88;97682.34;5097138;28;20408;-75
2023/02/15 02:04:01;;;;;;;;;;;;;;;-0.08;94.54;97681.53;5096482;28;19968;-75
2023/02/15 02:06:27;;;;;;;;;;;;;;;-0.09;95.36;97676.47;5096752;28;19949;-75
2023/02/15 02:08:54;;;;;;;;;;;;;;;-0.06;97.40;97686.56;5078457;28;20310;-75
2023/02/15 02:11:20;;;;;;;;;;;;;;;-0.05;97.41;97680.47;5096498;28;19973;-76
2023/02/15 02:13:47;;;;;;;;;;;;;;;-0.04;96.66;97669.22;5096199;28;19957;-75
2023/02/15 02:16:20;;;;;;;;;;;;;;;-0.04;96.52;97672.59;5078588;28;20326;-75
2023/02/15 02:19:05;;;;;;;;;;;;;;;-0.04;96.63;97666.63;5096600;28;19957;-75
2023/02/15 02:21:49;;;;;;;;;;;;;;;-0.04;96.44;97662.28;5085959;28;19941;-75
2023/02/15 02:24:34;;;;;;;;;;;;;;;-0.03;96.86;97671.66;5077926;28;20417;-75
2023/02/15 02:27:18;;;;;;;;;;;;;;;-0.04;96.52;97664.88;5078062;28;19951;-75
2023/02/15 02:29:44;;;;;;;;;;;;;;;-0.05;96.51;97655.47;5096149;28;19954;-75
2023/02/15 02:32:10;;;;;;;;;;;;;;;-0.05;96.46;97663.22;5096247;28;20365;-75
2023/02/15 02:34:58;;;;;;;;;;;;;;;-0.05;97.32;97670.94;5095845;28;20402;-75
2023/02/15 02:37:29;;;;;;;;;;;;;;;-0.06;97.42;97669.31;5096358;28;19950;-75
2023/02/15 02:40:03;;;;;;;;;;;;;;;-0.07;96.92;97662.50;5096302;28;19965;-75
2023/02/15 02:42:32;;;;;;;;;;;;;;;-0.08;96.53;97658.31;5080761;28;19973;-75
2023/02/15 02:45:02;;;;;;;;;;;;;;;-0.11;96.05;97645.66;5096247;28;19962;-75
2023/02/15 02:47:47;;;;;;;;;;;;;;;-0.12;95.91;97656.91;5095997;28;19954;-75
2023/02/15 02:50:15;;;;;;;;;;;;;;;-0.14;96.22;97652.81;5095791;28;19945;-75
2023/02/15 02:52:41;;;;;;;;;;;;;;;-0.16;96.30;97662.44;5095769;28;20344;-75
2023/02/15 02:55:10;;;;;;;;;;;;;;;-0.18;95.94;97654.81;5095420;28;19978;-75
2023/02/15 02:57:37;;;;;;;;;;;;;;;-0.21;96.05;97649.88;5095555;28;19943;-75
2023/02/15 03:00:04;;;;;;;;;;;;;;;-0.22;96.16;97656.81;5095276;28;19971;-75
2023/02/15 03:02:34;;;;;;;;;;;;;;;-0.25;95.65;97648.53;5095723;28;19960;-75
2023/02/15 03:05:03;;;;;;;;;;;;;;;-0.28;95.04;97653.91;5095537;28;19951;-75
2023/02/15 03:07:30;;;;;;;;;;;;;;;-0.32;95.17;97648.16;5077184;28;20316;-76
2023/02/15 03:10:01;;;;;;;;;;;;;;;-0.33;96.40;97653.44;5095405;28;20317;-75
2023/02/15 03:12:29;;;;;;;;;;;;;;;-0.32;96.41;97657.66;5095584;28;20438;-75
2023/02/15 03:15:04;;;;;;;;;;;;;;;-0.33;96.30;97650.88;5095252;28;19961;-75
2023/02/15 03:17:31;;;;;;;;;;;;;;;-0.34;96.83;97656.94;5077066;28;19938;-76
2023/02/15 03:19:58;;;;;;;;;;;;;;;-0.36;96.61;97659.63;5076852;28;19962;-76
2023/02/15 03:22:35;;;;;;;;;;;;;;;-0.39;96.18;97649.59;5095064;28;20319;-75
2023/02/15 03:25:09;;;;;;;;;;;;;;;-0.42;96.08;97648.06;5095127;28;19954;-76
2023/02/15 03:27:41;;;;;;;;;;;;;;;-0.44;95.51;97649.13;5084106;28;19958;-75
2023/02/15 03:30:08;;;;;;;;;;;;;;;-0.47;95.33;97646.78;5084779;28;19952;-76
2023/02/15 03:32:35;;;;;;;;;;;;;;;-0.50;95.37;97645.25;5095002;28;19955;-75
2023/02/15 03:35:01;;;;;;;;;;;;;;;-0.52;95.29;97641.97;5076901;28;19942;-76
2023/02/15 03:37:46;;;;;;;;;;;;;;;-0.54;95.07;97650.78;5094848;28;19952;-75
2023/02/15 03:43:07;;;;;;;;;;;;;;;-0.61;95.19;97655.56;5065600;28;19974;-75
2023/02/15 03:45:35;;;;;;;;;;;;;;;-0.63;95.12;97652.28;5095041;28;19961;-75
2023/02/15 03:48:02;;;;;;;;;;;;;;;-0.64;95.54;97661.78;5094579;28;20009;-75
2023/02/15 03:53:17;;;;;;;;;;;;;;;-0.68;95.49;97646.66;5063996;28;20402;-76
2023/02/15 03:55:46;;;;;;;;;;;;;;;-0.69;95.25;97645.88;5093684;28;20313;-75
2023/02/15 04:03:57;;;;;;;;;;;;;;;-0.66;97.06;97643.03;5094187;28;19944;-76
2023/02/15 04:06:23;;;;;;;;;;;;;;;-0.66;97.08;97645.63;5095062;28;19945;-75
2023/02/15 04:11:33;;;;;;;;;;;;;;;-0.63;97.91;97640.25;5076369;28;20313;-76
2023/02/15 04:16:02;;;;;;;;;;;;;;;-0.63;97.42;97641.97;5094385;28;19952;-75
2023/02/15 04:16:45;;;;;;;;;;;;;;;-0.61;97.16;97642.69;5094397;28;19958;-76
2023/02/15 04:27:24;;;;;;;;;;;;;;;-0.71;95.38;97626.31;5094290;28;20356;-76
2023/02/15 04:29:50;;;;;;;;;;;;;;;-0.72;95.32;97632.38;5094101;28;19987;-75
2023/02/15 04:32:16;;;;;;;;;;;;;;;-0.76;94.96;97618.91;5093854;28;20052;-75
2023/02/15 04:34:42;;;;;;;;;;;;;;;-0.78;95.25;97620.78;5094163;28;19993;-75
2023/02/15 04:37:08;;;;;;;;;;;;;;;-0.80;95.67;97625.25;5093647;28;20018;-75
2023/02/15 04:39:33;;;;;;;;;;;;;;;-0.81;96.42;97631.34;5094114;28;20003;-75
2023/02/15 04:41:59;;;;;;;;;;;;;;;-0.82;97.22;97634.84;5093468;28;19953;-76
2023/02/15 04:44:25;;;;;;;;;;;;;;;-0.79;96.86;97647.50;5094159;28;20347;-75
2023/02/15 04:46:51;;;;;;;;;;;;;;;-0.81;96.65;97636.50;5075955;28;19952;-75
2023/02/15 04:49:17;;;;;;;;;;;;;;;-0.80;96.45;97638.13;5075822;28;19954;-75
2023/02/15 04:51:43;;;;;;;;;;;;;;;-0.82;96.54;97634.84;5093588;28;19964;-76
2023/02/15 04:54:09;;;;;;;;;;;;;;;-0.83;96.10;97630.63;5093953;28;19938;-75
2023/02/15 04:56:37;;;;;;;;;;;;;;;-0.84;96.01;97634.13;5094006;28;20003;-76
2023/02/15 04:59:03;;;;;;;;;;;;;;;-0.86;95.72;97638.56;5084184;28;20436;-75
2023/02/15 05:01:29;;;;;;;;;;;;;;;-0.90;95.70;97627.72;5093665;28;19958;-76
2023/02/15 05:03:55;;;;;;;;;;;;;;;-0.92;95.25;97626.19;5075972;28;20000;-75
2023/02/15 05:06:20;;;;;;;;;;;;;;;-0.95;95.19;97618.69;5093930;28;20397;-75
2023/02/15 05:08:46;;;;;;;;;;;;;;;-0.98;94.86;97609.44;5097566;28;20443;-75
2023/02/15 05:11:12;;;;;;;;;;;;;;;-1.01;94.48;97607.09;5097577;28;19945;-76
2023/02/15 05:13:38;;;;;;;;;;;;;;;-1.03;94.62;97612.38;5079311;28;19958;-75
2023/02/15 05:16:04;;;;;;;;;;;;;;;-1.03;94.85;97608.97;5079298;28;20312;-75
2023/02/15 05:18:30;;;;;;;;;;;;;;;-1.05;95.28;97616.81;5097695;28;19981;-75
2023/02/15 05:20:56;;;;;;;;;;;;;;;-1.06;95.11;97612.59;5097358;28;19965;-76
2023/02/15 05:23:22;;;;;;;;;;;;;;;-1.08;95.43;97606.75;5097654;28;20304;-75
2023/02/15 05:28:33;;;;;;;;;;;;;;;-1.05;95.91;97615.97;5083382;28;19946;-75
2023/02/15 05:31:03;;;;;;;;;;;;;;;-1.07;96.18;97610.97;5097388;28;19949;-75
2023/02/15 05:33:29;;;;;;;;;;;;;;;-1.05;96.25;97615.97;5097002;28;19950;-75
2023/02/15 05:35:55;;;;;;;;;;;;;;;-1.06;96.27;97612.59;5097304;28;19957;-75
2023/02/15 05:38:21;;;;;;;;;;;;;;;-1.06;96.64;97612.59;5097187;28;20451;-75
2023/02/15 05:40:47;;;;;;;;;;;;;;;-1.05;96.67;97619.41;5097602;28;20010;-75
2023/02/15 05:43:13;;;;;;;;;;;;;;;-1.03;96.27;97621.84;5096778;28;19976;-75
2023/02/15 05:45:38;;;;;;;;;;;;;;;-1.05;96.15;97619.41;5062474;28;19990;-75
2023/02/15 05:48:04;;;;;;;;;;;;;;;-1.05;95.98;97618.56;5078660;28;19957;-76
2023/02/15 05:50:30;;;;;;;;;;;;;;;-1.05;96.22;97621.97;5097065;28;19952;-75
2023/02/15 05:52:56;;;;;;;;;;;;;;;-1.06;96.01;97616.94;5096743;28;19955;-75
2023/02/15 05:55:22;;;;;;;;;;;;;;;-1.09;95.41;97610.25;5078973;28;19954;-76
2023/02/15 05:57:48;;;;;;;;;;;;;;;-1.11;95.28;97609.56;5096941;28;20009;-75
2023/02/15 06:00:14;;;;;;;;;;;;;;;-1.14;94.88;97614.13;5096523;28;19962;-76
2023/02/15 06:02:40;;;;;;;;;;;;;;;-1.18;94.73;97618.66;5096676;28;19944;-75
2023/02/15 06:05:07;;;;;;;;;;;;;;;-1.20;94.73;97622.28;5096447;28;20385;-75
2023/02/15 06:07:32;;;;;;;;;;;;;;;-1.23;94.95;97619.00;5096579;28;19945;-75
2023/02/15 06:09:58;;;;;;;;;;;;;;;-1.22;95.42;97622.41;5078431;28;19990;-75
2023/02/15 06:12:24;;;;;;;;;;;;;;;-1.23;96.02;97638.78;5096501;28;19965;-75
2023/02/15 06:14:50;;;;;;;;;;;;;;;-1.24;95.94;97637.97;5096350;28;20003;-75
2023/02/15 06:17:16;;;;;;;;;;;;;;;-1.25;95.87;97632.94;5095863;28;19969;-75
2023/02/15 06:19:42;;;;;;;;;;;;;;;-1.25;96.37;97631.19;5096370;28;20029;-75
2023/02/15 06:22:08;;;;;;;;;;;;;;;-1.25;96.36;97636.31;5096508;28;20024;-75
2023/02/15 06:24:34;;;;;;;;;;;;;;;-1.24;95.91;97643.13;5096754;28;19952;-75
2023/02/15 06:27:00;;;;;;;;;;;;;;;-1.23;95.78;97642.19;5096198;28;19995;-77
2023/02/15 06:29:26;;;;;;;;;;;;;;;-1.23;95.80;97641.38;5096448;28;20401;-75
2023/02/15 06:31:52;;;;;;;;;;;;;;;-1.25;95.42;97641.47;5096050;28;20365;-75
2023/02/15 06:34:17;;;;;;;;;;;;;;;-1.27;95.34;97637.38;5095959;28;19947;-75
2023/02/15 06:36:43;;;;;;;;;;;;;;;-1.28;95.08;97636.56;5096101;28;19978;-76
2023/02/15 06:39:09;;;;;;;;;;;;;;;-1.29;95.02;97641.81;5095998;28;20056;-75
2023/02/15 06:41:35;;;;;;;;;;;;;;;-1.30;95.20;97645.31;5111692;28;19966;-75
2023/02/15 06:44:01;;;;;;;;;;;;;;;-1.30;95.32;97646.16;5095116;28;20063;-75
2023/02/15 06:46:27;;;;;;;;;;;;;;;-1.30;95.32;97648.72;5095969;28;19948;-75
2023/02/15 06:48:53;;;;;;;;;;;;;;;-1.29;96.42;97660.66;5095642;28;19985;-75
2023/02/15 06:51:18;;;;;;;;;;;;;;;-1.29;97.00;97654.69;5096291;28;19944;-75
2023/02/15 06:53:44;;;;;;;;;;;;;;;-1.27;97.30;97665.69;5095015;28;20310;-75
2023/02/15 06:56:10;;;;;;;;;;;;;;;-1.24;97.19;97657.72;5095420;28;19951;-75
2023/02/15 06:58:37;;;;;;;;;;;;;;;-1.21;96.92;97654.13;5095532;28;19957;-75
2023/02/15 07:01:03;;;;;;;;;;;;;;;-1.14;96.50;97656.09;5095795;28;19957;-75
2023/02/15 07:03:29;;;;;;;;;;;;;;;-1.04;96.75;97657.06;5095481;28;19997;-75
2023/02/15 07:05:59;;;;;;;;;;;;;;;-0.85;96.27;97647.97;5095737;28;20395;-76
2023/02/15 07:08:26;;;;;;;;;;;;;;;-0.52;95.16;97647.13;5079878;28;19941;-75
2023/02/15 07:10:52;;;;;;;;;;;;;;;-0.03;93.85;97634.75;5095415;28;19954;-75
2023/02/15 07:13:19;;;;;;;;;;;;;;;0.53;91.78;97625.97;5095135;28;19948;-75
2023/02/15 07:15:45;;;;;;;;;;;;;;;1.12;89.62;97604.66;5095360;28;20305;-74
2023/02/15 07:18:11;;;;;;;;;;;;;;;1.71;87.69;97592.72;5077113;28;19951;-74
2023/02/15 07:20:38;;;;;;;;;;;;;;;2.24;85.63;97579.41;5095064;28;19996;-75
2023/02/15 07:23:04;;;;;;;;;;;;;;;2.73;83.78;97561.22;5094953;28;19954;-75
2023/02/15 07:25:30;;;;;;;;;;;;;;;3.17;82.36;97550.25;5095485;28;19943;-75
2023/02/15 07:27:57;;;;;;;;;;;;;;;3.54;81.09;97534.63;5094991;28;20403;-76
2023/02/15 07:30:23;;;;;;;;;;;;;;;3.92;79.59;97524.13;5093574;28;19960;-75
2023/02/15 07:35:33;;;;;;;;;;;;;;;4.60;77.51;97503.53;5095047;28;19949;-77
2023/02/15 07:37:59;;;;;;;;;;;;;;;4.86;76.24;97498.28;5095043;28;19952;-76
2023/02/15 07:40:25;;;;;;;;;;;;;;;5.07;75.00;97487.50;5094813;28;20393;-76
2023/02/15 07:42:56;;;;;;;;;;;;;;;5.24;74.22;97484.94;5094886;28;20481;-76
2023/02/15 07:45:21;;;;;;;;;;;;;;;5.40;74.03;97477.19;5095164;28;19962;-76
2023/02/15 07:47:47;;;;;;;;;;;;;;;5.52;73.32;97472.47;5094690;28;19955;-77
2023/02/15 07:50:13;;;;;;;;;;;;;;;5.62;72.83;97470.53;5094550;28;19980;-76
2023/02/15 07:52:39;;;;;;;;;;;;;;;5.73;72.34;97472.00;5094594;28;19956;-76
2023/02/15 07:55:05;;;;;;;;;;;;;;;5.82;71.88;97465.03;5094557;28;19944;-76
2023/02/15 07:57:31;;;;;;;;;;;;;;;5.89;70.90;97458.19;5094842;28;19965;-75
2023/02/15 07:59:57;;;;;;;;;;;;;;;5.95;71.09;97454.97;5076468;28;19970;-75
2023/02/15 08:02:23;;;;;;;;;;;;;;;5.96;70.65;97454.00;5094322;28;19957;-75
2023/02/15 08:04:48;;;;;;;;;;;;;;;5.93;69.76;97443.06;5094427;28;19955;-75
2023/02/15 08:07:14;;;;;;;;;;;;;;;5.90;71.17;97472.88;5094563;28;19959;-75
2023/02/15 08:09:40;;;;;;;;;;;;;;;5.95;72.32;97483.63;5094303;28;19955;-75
2023/02/15 08:12:06;;;;;;;;;;;;;;;5.97;72.38;97481.66;5094053;28;19956;-75
2023/02/15 08:14:32;;;;;;;;;;;;;;;5.90;71.77;97476.28;5094151;28;19967;-75
2023/02/15 08:16:59;;;;;;;;;;;;;;;5.78;68.83;97451.53;5094357;28;19955;-75
2023/02/15 08:19:26;;;;;;;;;;;;;;;5.58;67.77;97438.00;5094069;28;20311;-75
2023/02/15 08:21:53;;;;;;;;;;;;;;;5.57;69.02;97451.22;5093878;28;19975;-75
2023/02/15 08:24:20;;;;;;;;;;;;;;;5.70;70.67;97473.16;5093825;28;19955;-75
2023/02/15 08:26:47;;;;;;;;;;;;;;;5.89;67.62;97447.78;5094311;28;19952;-75
2023/02/15 08:29:14;;;;;;;;;;;;;;;6.10;68.57;97445.53;5094140;28;19954;-75
2023/02/15 08:31:41;;;;;;;;;;;;;;;6.30;67.71;97446.00;5094337;28;19952;-75
2023/02/15 08:34:08;;;;;;;;;;;;;;;6.47;66.68;97425.91;5093855;28;19962;-75
2023/02/15 08:36:34;;;;;;;;;;;;;;;6.58;67.24;97442.19;5093615;28;19947;-76
2023/02/15 08:39:00;;;;;;;;;;;;;;;6.63;66.67;97450.28;5093842;28;20046;-75
2023/02/15 08:41:29;;;;;;;;;;;;;;;6.69;66.32;97437.41;5093531;28;19968;-75
2023/02/15 08:43:56;;;;;;;;;;;;;;;6.76;65.59;97428.91;5093844;28;19975;-75
2023/02/15 08:46:23;;;;;;;;;;;;;;;6.81;67.52;97458.72;5093890;28;19965;-75
2023/02/15 08:48:49;;;;;;;;;;;;;;;6.94;65.90;97444.31;5093980;28;20417;-75
2023/02/15 08:51:16;;;;;;;;;;;;;;;6.93;68.03;97472.19;5093464;28;19962;-76
2023/02/15 08:53:44;;;;;;;;;;;;;;;7.01;68.53;97469.53;5094636;28;19951;-75
2023/02/15 08:56:10;;;;;;;;;;;;;;;7.11;68.83;97471.94;5093731;28;19954;-75
2023/02/15 08:58:36;;;;;;;;;;;;;;;7.05;65.03;97449.16;5093809;28;19959;-75
2023/02/15 09:01:09;;;;;;;;;;;;;;;6.89;67.67;97476.94;5093832;28;20029;-75
2023/02/15 09:03:35;;;;;;;;;;;;;;;6.97;66.89;97476.09;5093549;28;20022;-75
2023/02/15 09:06:01;;;;;;;;;;;;;;;7.02;67.29;97467.75;5093091;28;19956;-75
2023/02/15 09:08:27;;;;;;;;;;;;;;;7.06;68.67;97484.69;5093436;28;19955;-75
2023/02/15 09:10:54;;;;;;;;;;;;;;;7.21;69.23;97490.00;5093405;28;19949;-75
2023/02/15 09:13:20;;;;;;;;;;;;;;;7.30;67.39;97470.72;5093553;28;19970;-75
2023/02/15 09:15:46;;;;;;;;;;;;;;;7.32;68.40;97476.56;5093438;28;19954;-76
2023/02/15 09:18:16;;;;;;;;;;;;;;;7.14;68.03;97471.63;5093333;28;19947;-76
2023/02/15 09:20:44;;;;;;;;;;;;;;;6.96;66.83;97458.81;5093412;28;19970;-75
2023/02/15 09:23:09;;;;;;;;;;;;;;;6.87;69.62;97493.72;5093763;28;19950;-75
2023/02/15 09:25:35;;;;;;;;;;;;;;;6.90;68.28;97482.97;5093665;28;20024;-75
2023/02/15 09:28:01;;;;;;;;;;;;;;;6.95;67.68;97475.47;5093551;28;19957;-75
2023/02/15 09:30:27;;;;;;;;;;;;;;;6.95;67.77;97461.59;5092725;28;20357;-76
2023/02/15 09:32:53;;;;;;;;;;;;;;;7.01;67.81;97456.50;5093182;28;19954;-76
2023/02/15 09:35:19;;;;;;;;;;;;;;;7.01;68.31;97459.09;5093138;28;19952;-75
2023/02/15 09:37:44;;;;;;;;;;;;;;;7.05;68.45;97457.78;5075562;28;19964;-75
2023/02/15 09:40:12;;;;;;;;;;;;;;;7.15;67.31;97446.34;5093507;28;20008;-76
2023/02/15 09:42:57;;;;;;;;;;;;;;;7.24;68.38;97456.53;5092894;28;19978;-75
2023/02/15 09:45:30;;;;;;;;;;;;;;;7.35;66.99;97444.09;5093055;28;20421;-76
2023/02/15 09:48:14;;;;;;;;;;;;;;;7.35;65.42;97431.03;5093670;28;19964;-75
2023/02/15 09:50:49;;;;;;;;;;;;;;;7.41;67.77;97448.63;5093141;28;19947;-76
2023/02/15 09:53:15;;;;;;;;;;;;;;;7.50;68.10;97451.00;5094813;28;20334;-76
2023/02/15 09:55:45;;;;;;;;;;;;;;;7.61;65.67;97423.69;5096848;28;19950;-75
2023/02/15 09:58:20;;;;;;;;;;;;;;;7.64;67.62;97435.59;5096530;28;19948;-76
2023/02/15 10:00:45;;;;;;;;;;;;;;;7.62;66.93;97438.38;5096532;28;19971;-76
2023/02/15 10:03:23;;;;;;;;;;;;;;;7.64;66.67;97440.81;5096855;28;20401;-76
2023/02/15 10:06:02;;;;;;;;;;;;;;;7.60;67.89;97450.81;5096990;28;19953;-76
2023/02/15 10:08:30;;;;;;;;;;;;;;;7.68;66.65;97445.50;5096406;28;19954;-76
2023/02/15 10:11:38;;;;;;;;;;;;;;;7.84;65.94;97436.72;5081452;28;19951;-76
2023/02/15 10:14:03;;;;;;;;;;;;;;;7.86;62.27;97398.19;5096341;28;19964;-75
2023/02/15 10:16:36;;;;;;;;;;;;;;;7.82;65.04;97430.88;5088296;28;20402;-76
2023/02/15 10:19:05;;;;;;;;;;;;;;;7.73;66.39;97448.41;5096761;28;19948;-76
2023/02/15 10:21:40;;;;;;;;;;;;;;;7.69;63.47;97425.44;5096104;28;19973;-76
2023/02/15 10:24:08;;;;;;;;;;;;;;;7.73;64.30;97430.13;5095916;28;19957;-76
2023/02/15 10:26:42;;;;;;;;;;;;;;;7.80;63.83;97439.88;5096517;28;19951;-75
2023/02/15 10:29:16;;;;;;;;;;;;;;;7.91;65.35;97444.66;5078053;28;19959;-76
2023/02/15 10:31:54;;;;;;;;;;;;;;;8.07;62.16;97407.16;5096565;28;20436;-76
2023/02/15 10:34:40;;;;;;;;;;;;;;;8.13;63.24;97422.13;5081518;28;19950;-76
2023/02/15 10:37:20;;;;;;;;;;;;;;;8.17;64.35;97422.56;5081528;28;19953;-76
2023/02/15 10:39:46;;;;;;;;;;;;;;;8.12;61.83;97407.41;5086643;28;20305;-76
2023/02/15 10:42:12;;;;;;;;;;;;;;;8.06;64.39;97429.03;5095505;28;20020;-76
2023/02/15 10:45:03;;;;;;;;;;;;;;;8.15;63.91;97420.16;5095625;28;20187;-76
2023/02/15 10:47:35;;;;;;;;;;;;;;;8.24;66.28;97426.91;5052475;28;19958;-76
2023/02/15 10:50:16;;;;;;;;;;;;;;;8.42;62.30;97391.78;5095813;28;19954;-76
2023/02/15 10:53:03;;;;;;;;;;;;;;;8.40;64.76;97419.88;5095706;28;19949;-76
2023/02/15 10:55:38;;;;;;;;;;;;;;;8.51;64.75;97419.47;5095182;28;19940;-75
2023/02/15 10:58:24;;;;;;;;;;;;;;;8.69;62.93;97403.41;5095692;28;20016;-76
2023/02/15 11:00:59;;;;;;;;;;;;;;;8.80;66.09;97420.44;5095543;28;19969;-76
2023/02/15 11:03:43;;;;;;;;;;;;;;;8.89;65.08;97414.94;5083293;28;19951;-76
2023/02/15 11:06:12;;;;;;;;;;;;;;;9.05;61.29;97379.91;5095307;28;19949;-77
2023/02/15 11:08:44;;;;;;;;;;;;;;;9.18;64.14;97421.09;5095561;28;19951;-77
2023/02/15 11:11:15;;;;;;;;;;;;;;;9.24;62.65;97402.03;5095188;28;19945;-76
2023/02/15 11:13:46;;;;;;;;;;;;;;;9.31;62.22;97387.19;5095494;28;20451;-76
2023/02/15 11:16:11;;;;;;;;;;;;;;;9.55;60.98;97387.81;5095601;28;20316;-76
2023/02/15 11:18:40;;;;;;;;;;;;;;;9.77;62.40;97370.28;5095277;28;19943;-76
2023/02/15 11:21:09;;;;;;;;;;;;;;;9.80;60.68;97371.72;5095106;28;20333;-76
2023/02/15 11:23:36;;;;;;;;;;;;;;;9.88;62.11;97388.09;5095246;28;20319;-76
2023/02/15 11:26:03;;;;;;;;;;;;;;;10.04;60.25;97365.25;5094974;28;19940;-74
2023/02/15 11:28:31;;;;;;;;;;;;;;;10.18;60.99;97366.94;5094961;28;19956;-77
2023/02/15 11:30:59;;;;;;;;;;;;;;;10.45;60.22;97367.13;5085003;28;19949;-76
2023/02/15 11:33:36;;;;;;;;;;;;;;;10.71;61.38;97375.13;5094938;28;19957;-76
2023/02/15 11:36:08;;;;;;;;;;;;;;;10.86;58.39;97353.97;5095005;28;20024;-76
2023/02/15 11:38:34;;;;;;;;;;;;;;;10.92;58.11;97454.75;5095086;28;19954;-76
2023/02/15 11:41:06;;;;;;;;;;;;;;;11.04;60.64;97461.03;5095178;28;19969;-76
2023/02/15 11:44:01;;;;;;;;;;;;;;;11.19;57.69;97458.25;5094433;28;19978;-76
2023/02/15 11:46:28;;;;;;;;;;;;;;;11.18;55.22;97431.19;5077207;28;19959;-76
2023/02/15 11:48:54;;;;;;;;;;;;;;;11.35;57.50;97457.13;5094970;28;20006;-76
2023/02/15 11:51:21;;;;;;;;;;;;;;;11.58;57.18;97448.88;5094563;28;20421;-76
2023/02/15 11:53:48;;;;;;;;;;;;;;;11.75;54.95;97439.59;5094528;28;19966;-76
2023/02/15 11:56:18;;;;;;;;;;;;;;;11.90;53.14;97430.75;5094636;28;19951;-76
2023/02/15 11:58:53;;;;;;;;;;;;;;;12.10;57.63;97446.56;5094569;28;19947;-76
2023/02/15 12:01:28;;;;;;;;;;;;;;;12.23;51.66;97425.50;5076243;28;19957;-76
2023/02/15 12:03:55;;;;;;;;;;;;;;;12.26;55.29;97438.22;5094579;28;19953;-76
2023/02/15 12:06:24;;;;;;;;;;;;;;;12.36;56.15;97437.81;5094467;28;19945;-76
2023/02/15 12:09:25;;;;;;;;;;;;;;;12.47;55.22;97437.19;5076006;28;19947;-76
2023/02/15 12:11:51;;;;;;;;;;;;;;;12.50;54.92;97434.16;5031818;28;19949;-77
2023/02/15 12:14:17;;;;;;;;;;;;;;;12.50;52.76;97421.00;5071408;28;19984;-76
2023/02/15 12:16:48;;;;;;;;;;;;;;;12.44;55.70;97434.97;5093951;28;19948;-76
2023/02/15 12:19:37;;;;;;;;;;;;;;;12.36;50.79;97411.50;5094281;28;19962;-77
2023/02/15 12:22:05;;;;;;;;;;;;;;;12.28;53.61;97420.41;5085627;28;19962;-76
2023/02/15 12:24:34;;;;;;;;;;;;;;;12.31;52.83;97411.34;5093695;28;19951;-76
2023/02/15 12:27:14;;;;;;;;;;;;;;;12.32;52.33;97408.47;5094243;28;19951;-76
2023/02/15 12:29:45;;;;;;;;;;;;;;;12.29;52.88;97413.34;5094057;28;20399;-76
2023/02/15 12:32:17;;;;;;;;;;;;;;;12.30;54.43;97412.34;5083784;28;19949;-77
2023/02/15 12:34:46;;;;;;;;;;;;;;;12.38;52.49;97405.03;5093870;28;19944;-76
2023/02/15 12:37:22;;;;;;;;;;;;;;;12.46;52.29;97403.22;5093906;28;19974;-76
2023/02/15 12:39:58;;;;;;;;;;;;;;;12.53;53.10;97398.72;5079693;28;19972;-76
2023/02/15 12:42:25;;;;;;;;;;;;;;;12.63;52.35;97399.09;5093371;28;19969;-76
2023/02/15 12:45:19;;;;;;;;;;;;;;;12.73;50.78;97398.69;5093912;28;19957;-76
2023/02/15 12:47:45;;;;;;;;;;;;;;;12.80;55.50;97415.25;5093363;28;19951;-77
2023/02/15 12:50:16;;;;;;;;;;;;;;;12.85;53.82;97404.91;5093685;28;19997;-77
2023/02/15 12:52:43;;;;;;;;;;;;;;;12.88;50.50;97382.63;5093984;28;19959;-76
2023/02/15 12:55:17;;;;;;;;;;;;;;;12.86;51.38;97387.28;5093636;28;19956;-77
2023/02/15 12:57:45;;;;;;;;;;;;;;;12.90;51.65;97384.03;5093917;28;19950;-77
2023/02/15 13:00:17;;;;;;;;;;;;;;;12.93;52.57;97394.13;5093481;28;19955;-76
2023/02/15 13:02:46;;;;;;;;;;;;;;;12.94;52.97;97381.78;5093499;28;19963;-76
2023/02/15 13:05:23;;;;;;;;;;;;;;;13.00;51.11;97381.75;5093467;28;19992;-77
2023/02/15 13:07:51;;;;;;;;;;;;;;;13.11;52.36;97382.91;5080465;28;20398;-77
2023/02/15 13:10:24;;;;;;;;;;;;;;;13.20;51.41;97373.72;5093502;28;19946;-77
2023/02/15 13:12:53;;;;;;;;;;;;;;;13.33;53.61;97385.25;5093598;28;19952;-77
2023/02/15 13:15:28;;;;;;;;;;;;;;;13.42;52.03;97362.09;5093431;28;19957;-77
2023/02/15 13:17:55;;;;;;;;;;;;;;;13.50;54.18;97367.91;5075312;28;20323;-77
2023/02/15 13:20:26;;;;;;;;;;;;;;;13.61;52.51;97355.88;5083576;28;19945;-77
2023/02/15 13:22:56;;;;;;;;;;;;;;;13.68;51.83;97351.34;5093373;28;19964;-77
2023/02/15 13:25:23;;;;;;;;;;;;;;;13.59;49.82;97350.81;5093339;28;19945;-77
2023/02/15 13:27:51;;;;;;;;;;;;;;;13.56;48.52;97351.22;5094340;28;19958;-77